Time;durP1;ratioP1;P1;durP2;ratioP2;P2;SDS_P1;SDS_P2;PMS_P1;PMS_P2;Temp;Humidity;BMP_temperature;BMP_pressure;BME280_temperature;BME280_humidity;BME280_pressure;Samples;Min_cycle;Max_cycle;Signal;HPM_P1;HPM_P2
2021/12/24 00:01:59;;;;;;;24.43;10.70;;;;;;;-10.66;100.00;99513.86;1721424;82;21019;-65
2021/12/24 00:04:26;;;;;;;25.25;11.73;;;;;;;-10.63;100.00;99499.61;1738679;82;21545;-66
2021/12/24 00:06:54;;;;;;;25.85;11.22;;;;;;;-10.61;100.00;99492.39;1739108;82;21079;-65
2021/12/24 00:09:25;;;;;;;21.75;10.40;;;;;;;-10.59;100.00;99488.31;1736320;82;21392;-65
2021/12/24 00:11:51;;;;;;;24.12;11.50;;;;;;;-10.58;100.00;99488.16;1727413;82;21066;-66
2021/12/24 00:14:19;;;;;;;21.62;11.57;;;;;;;-10.55;100.00;99481.28;1735181;82;21059;-64
2021/12/24 00:16:51;;;;;;;24.37;11.63;;;;;;;-10.54;100.00;99476.86;1740130;82;20971;-65
2021/12/24 00:19:20;;;;;;;23.55;11.38;;;;;;;-10.53;100.00;99474.09;1750089;82;21007;-66
2021/12/24 00:35:32;;;;;;;20.40;10.82;;;;;;;-10.53;100.00;99446.95;1750324;82;20980;-65
2021/12/24 00:38:03;;;;;;;20.08;11.00;;;;;;;-10.52;100.00;99447.31;1746815;82;21656;-65
2021/12/24 00:40:36;;;;;;;22.10;10.20;;;;;;;-10.53;100.00;99439.06;1745512;81;21035;-65
2021/12/24 00:43:02;;;;;;;22.00;11.35;;;;;;;-10.51;100.00;99433.98;1728652;82;21051;-65
2021/12/24 00:45:32;;;;;;;;;;;;;;;-10.51;100.00;99431.36;1737729;82;21039;-66
2021/12/24 00:47:59;;;;;;;21.82;10.38;;;;;;;-10.51;100.00;99416.05;1749057;82;20103;-65
2021/12/24 00:50:30;;;;;;;23.32;10.35;;;;;;;-10.53;100.00;99410.95;1730412;82;21565;-65
2021/12/24 00:55:02;;;;;;;22.37;10.78;;;;;;;-10.54;100.00;99417.19;1753045;81;21075;-65
2021/12/24 00:55:27;;;;;;;21.70;10.25;;;;;;;-10.52;100.00;99405.22;1746689;82;20987;-65
2021/12/24 00:57:58;;;;;;;24.52;11.43;;;;;;;-10.50;100.00;99408.52;1730104;82;21015;-65
2021/12/24 01:00:35;;;;;;;21.95;11.20;;;;;;;-10.50;100.00;99392.25;1723746;82;21362;-65
2021/12/24 01:03:03;;;;;;;23.25;11.80;;;;;;;-10.48;100.00;99385.02;1723829;82;21058;-65
2021/12/24 01:05:32;;;;;;;22.00;11.83;;;;;;;-10.48;100.00;99384.19;1725246;82;21007;-65
2021/12/24 01:07:58;;;;;;;21.33;11.00;;;;;;;-10.48;100.00;99381.55;1723196;82;21057;-65
2021/12/24 01:10:31;;;;;;;26.17;12.63;;;;;;;-10.49;100.00;99372.86;1723386;82;21058;-65
2021/12/24 01:12:58;;;;;;;21.25;11.28;;;;;;;-10.51;100.00;99370.02;1749677;82;21742;-65
2021/12/24 01:15:28;;;;;;;22.22;10.93;;;;;;;-10.52;100.00;99361.80;1743977;82;20998;-65
2021/12/24 01:18:06;;;;;;;23.18;11.90;;;;;;;-10.54;100.00;99361.94;1727318;82;21607;-65
2021/12/24 01:20:40;;;;;;;20.08;10.32;;;;;;;-10.54;100.00;99351.90;1738405;82;21632;-65
2021/12/24 01:26:03;;;;;;;21.93;11.80;;;;;;;-10.58;100.00;99338.21;1747567;82;21055;-66
2021/12/24 01:38:56;;;;;;;19.65;10.95;;;;;;;-10.61;100.00;99299.89;1727230;82;21561;-62
2021/12/24 01:41:18;;;;;;;20.45;11.15;;;;;;;-10.59;100.00;99290.52;1727690;82;21007;-63
2021/12/24 01:43:35;;;;;;;25.30;11.53;;;;;;;-10.59;100.00;99284.45;1744557;82;21067;-63
2021/12/24 01:46:03;;;;;;;22.58;12.18;;;;;;;-10.57;100.00;99282.00;1740735;82;21522;-63
2021/12/24 01:48:30;;;;;;;19.70;10.68;;;;;;;-10.56;100.00;99278.41;1696541;83;21039;-63
2021/12/24 01:50:56;;;;;;;25.23;11.80;;;;;;;-10.54;100.00;99277.75;1745508;82;20987;-64
2021/12/24 01:53:25;;;;;;;22.10;11.63;;;;;;;-10.52;100.00;99271.05;1749426;82;21550;-63
2021/12/24 01:55:53;;;;;;;25.08;12.75;;;;;;;-10.55;100.00;99268.20;1752539;82;21079;-63
2021/12/24 01:58:23;;;;;;;22.50;11.43;;;;;;;-10.55;100.00;99262.11;1752862;82;21573;-63
2021/12/24 02:00:51;;;;;;;28.07;11.12;;;;;;;-10.55;100.00;99251.10;1729438;82;21510;-63
2021/12/24 02:03:19;;;;;;;20.77;11.40;;;;;;;-10.53;100.00;99252.28;1723308;83;21614;-64
2021/12/24 02:05:46;;;;;;;20.62;12.23;;;;;;;-10.53;100.00;99241.27;1746396;82;21015;-64
2021/12/24 02:08:13;;;;;;;20.50;10.63;;;;;;;-10.53;100.00;99226.80;1739543;81;21058;-64
2021/12/24 02:10:39;;;;;;;24.45;11.95;;;;;;;-10.52;100.00;99218.42;1723249;82;21038;-64
2021/12/24 02:13:06;;;;;;;19.55;10.88;;;;;;;-10.53;100.00;99212.82;1723598;82;21094;-63
2021/12/24 02:28:17;;;;;;;27.77;12.93;;;;;;;-10.57;100.00;99201.77;1740880;82;21063;-63
2021/12/24 02:29:27;;;;;;;20.92;11.03;;;;;;;-10.68;100.00;99193.63;1689951;84;21083;-64
2021/12/24 02:31:54;;;;;;;21.27;10.80;;;;;;;-10.69;100.00;99199.02;1721222;82;20994;-64
2021/12/24 02:34:20;;;;;;;23.52;10.50;;;;;;;-10.72;100.00;99188.32;1738681;82;21055;-64
2021/12/24 02:36:46;;;;;;;22.50;11.03;;;;;;;-10.73;100.00;99180.08;1738978;82;21003;-64
2021/12/24 02:39:13;;;;;;;18.45;9.73;;;;;;;-10.76;100.00;99184.33;1714070;82;21059;-64
2021/12/24 02:41:39;;;;;;;25.90;11.12;;;;;;;-10.77;100.00;99181.88;1716850;82;21015;-64
2021/12/24 02:44:06;;;;;;;22.80;10.40;;;;;;;-10.78;100.00;99177.58;1738848;82;21553;-64
2021/12/24 02:46:41;;;;;;;22.15;10.90;;;;;;;-10.79;100.00;99175.43;1738589;82;21051;-64
2021/12/24 02:49:08;;;;;;;22.85;11.80;;;;;;;-10.78;100.00;99171.84;1733835;82;21012;-64
2021/12/24 02:54:16;;;;;;;18.32;9.98;;;;;;;-10.79;100.00;99167.55;1738980;82;21636;-63
2021/12/24 02:56:51;;;;;;;21.97;10.08;;;;;;;-10.81;100.00;99164.25;1738991;82;21015;-63
2021/12/24 02:59:13;;;;;;;19.48;10.40;;;;;;;-10.82;100.00;99153.39;1735748;82;21083;-64
2021/12/24 03:01:44;;;;;;;20.08;10.28;;;;;;;-10.83;100.00;99146.95;1738829;82;21442;-64
2021/12/24 03:04:11;;;;;;;21.20;10.55;;;;;;;-10.82;100.00;99146.81;1735282;82;21044;-63
2021/12/24 03:06:43;;;;;;;20.92;10.98;;;;;;;-10.84;100.00;99121.14;1718505;82;21078;-63
2021/12/24 03:09:13;;;;;;;22.50;11.33;;;;;;;-10.81;100.00;99124.81;1714783;82;21601;-64
2021/12/24 03:11:40;;;;;;;18.75;9.95;;;;;;;-10.80;100.00;99119.03;1737753;82;20944;-64
2021/12/24 03:14:07;;;;;;;21.30;9.05;;;;;;;-10.80;100.00;99113.30;1733278;82;21549;-64
2021/12/24 03:16:37;;;;;;;20.25;9.95;;;;;;;-10.77;100.00;99102.47;1736601;82;21051;-64
2021/12/24 03:19:05;;;;;;;23.12;10.80;;;;;;;-10.74;100.00;99107.45;1736790;81;21039;-63
2021/12/24 03:21:38;;;;;;;21.73;11.08;;;;;;;-10.72;100.00;99091.50;1734238;82;20993;-63
2021/12/24 03:26:37;;;;;;;24.98;12.15;;;;;;;-10.66;100.00;99078.55;1709859;82;21032;-64
2021/12/24 03:29:05;;;;;;;21.10;10.70;;;;;;;-10.66;100.00;99076.41;1688573;84;21554;-64
2021/12/24 03:31:32;;;;;;;24.90;11.95;;;;;;;-10.63;100.00;99078.77;1735802;82;21035;-64
2021/12/24 03:33:58;;;;;;;23.32;11.85;;;;;;;-10.63;100.00;99063.78;1738879;82;21063;-64
2021/12/24 03:36:26;;;;;;;;;;;;;;;-10.61;100.00;99060.52;1741153;82;21035;-64
2021/12/24 03:38:53;;;;;;;24.30;10.08;;;;;;;-10.58;100.00;99059.87;1728903;82;20108;-64
2021/12/24 03:41:20;;;;;;;24.77;12.05;;;;;;;-10.62;100.00;99057.55;1710615;82;20981;-64
2021/12/24 03:43:47;;;;;;;22.40;11.12;;;;;;;-10.63;100.00;99054.57;1732536;82;21132;-64
2021/12/24 03:46:17;;;;;;;20.02;9.78;;;;;;;-10.63;100.00;99043.25;1711176;82;21491;-63
2021/12/24 03:48:59;;;;;;;19.42;9.83;;;;;;;-10.64;100.00;99048.17;1710295;82;21075;-64
2021/12/24 03:56:44;;;;;;;24.37;10.70;;;;;;;-10.67;100.00;99031.39;1738475;82;21035;-64
2021/12/24 03:59:13;;;;;;;19.98;10.28;;;;;;;-10.69;100.00;99022.33;1713569;82;21048;-64
2021/12/24 04:01:56;;;;;;;23.22;9.40;;;;;;;-10.70;100.00;99020.67;1656697;86;21061;-63
2021/12/24 04:04:32;;;;;;;23.10;10.65;;;;;;;-10.70;100.00;99005.41;1671788;84;21079;-64
2021/12/24 04:07:17;;;;;;;19.92;9.85;;;;;;;-10.72;100.00;99000.77;1712568;82;21064;-64
2021/12/24 04:10:12;;;;;;;16.70;8.70;;;;;;;-10.73;100.00;98997.31;1715820;82;21067;-64
2021/12/24 04:12:50;;;;;;;21.05;9.53;;;;;;;-10.74;100.00;98987.80;1729410;82;21036;-64
2021/12/24 04:15:17;;;;;;;20.37;10.28;;;;;;;-10.75;100.00;98991.40;1718534;82;21040;-64
2021/12/24 04:17:44;;;;;;;21.52;10.38;;;;;;;-10.76;100.00;98982.34;1738973;82;21016;-64
2021/12/24 04:25:42;;;;;;;17.90;9.63;;;;;;;-10.73;100.00;98970.19;1751266;82;20956;-64
2021/12/24 04:28:08;;;;;;;;;;;;;;;-10.72;100.00;98970.05;1678568;83;21557;-64
2021/12/24 04:30:41;;;;;;;17.82;8.85;;;;;;;-10.72;100.00;98970.05;1741771;82;20130;-64
2021/12/24 04:35:58;;;;;;;22.30;9.88;;;;;;;-10.75;100.00;98961.16;1674936;85;21059;-64
2021/12/24 04:51:55;;;;;;;18.23;8.83;;;;;;;-10.72;100.00;98918.77;1751274;81;21023;-64
2021/12/24 05:02:52;;;;;;;19.52;9.05;;;;;;;-10.67;100.00;98907.30;1737079;82;21490;-64
2021/12/24 05:05:22;;;;;;;17.07;9.33;;;;;;;-10.64;100.00;98908.29;1750455;82;21126;-64
2021/12/24 05:10:15;;;;;;;19.62;9.50;;;;;;;-10.57;100.00;98905.84;1723204;82;20109;-64
2021/12/24 05:12:42;;;;;;;20.75;9.70;;;;;;;-10.58;100.00;98891.04;1739741;82;20996;-65
2021/12/24 05:15:10;;;;;;;22.05;10.23;;;;;;;-10.51;100.00;98893.37;1752753;82;21102;-63
2021/12/24 05:18:04;;;;;;;20.10;9.58;;;;;;;-10.48;100.00;98892.22;1714090;82;21095;-64
2021/12/24 05:23:12;;;;;;;18.80;10.23;;;;;;;-10.42;100.00;98883.71;1746931;82;21051;-64
2021/12/24 05:25:42;;;;;;;21.10;10.88;;;;;;;-10.39;100.00;98879.44;1723996;82;21062;-65
2021/12/24 05:28:10;;;;;;;23.47;11.05;;;;;;;-10.36;100.00;98878.63;1746904;82;21629;-66
2021/12/24 05:30:38;;;;;;;19.67;10.25;;;;;;;-10.33;100.00;98873.04;1747419;82;20969;-64
2021/12/24 05:33:04;;;;;;;17.42;9.68;;;;;;;-10.29;100.00;98874.86;1747460;82;21035;-64
2021/12/24 05:35:31;;;;;;;19.52;10.40;;;;;;;-10.25;100.00;98865.66;1747086;82;21011;-64
2021/12/24 05:37:57;;;;;;;21.30;10.70;;;;;;;-10.23;100.00;98868.45;1736602;81;21102;-64
2021/12/24 05:40:24;;;;;;;;;;;;;;;-10.20;100.00;98869.96;1740826;82;21043;-64
2021/12/24 05:42:50;;;;;;;20.57;10.28;;;;;;;-10.17;100.00;98869.63;1729360;81;20570;-64
2021/12/24 05:45:17;;;;;;;21.33;10.48;;;;;;;-10.16;100.00;98869.94;1724556;82;21573;-64
2021/12/24 05:47:51;;;;;;;20.92;9.55;;;;;;;-10.11;100.00;98871.58;1723334;82;21518;-64
2021/12/24 05:50:18;;;;;;;21.70;11.20;;;;;;;-10.06;100.00;98875.05;1744997;82;21039;-65
2021/12/24 05:52:44;;;;;;;19.48;10.13;;;;;;;-10.03;100.00;98871.59;1731321;82;21066;-65
2021/12/24 05:55:19;;;;;;;20.85;10.18;;;;;;;-9.98;100.00;98873.72;1743996;82;21567;-65
2021/12/24 05:57:46;;;;;;;20.45;10.88;;;;;;;-9.95;100.00;98866.84;1747409;82;21015;-65
2021/12/24 06:00:14;;;;;;;23.70;11.57;;;;;;;-9.90;100.00;98860.09;1746481;82;21083;-65
2021/12/24 06:02:41;;;;;;;21.23;11.60;;;;;;;-9.85;100.00;98863.55;1745427;82;21011;-64
2021/12/24 06:05:08;;;;;;;26.52;14.07;;;;;;;-9.79;100.00;98860.26;1720374;82;21059;-65
2021/12/24 06:07:34;;;;;;;27.32;14.33;;;;;;;-9.79;100.00;98853.19;1719951;82;21562;-65
2021/12/24 06:10:01;;;;;;;26.23;13.25;;;;;;;-9.77;100.00;98842.47;1717480;83;21047;-64
2021/12/24 06:12:28;;;;;;;36.98;17.90;;;;;;;-9.71;100.00;98836.56;1724309;82;20999;-65
2021/12/24 06:15:01;;;;;;;37.73;18.50;;;;;;;-9.66;100.00;98842.97;1738464;82;21582;-65
2021/12/24 06:17:23;;;;;;;28.65;14.10;;;;;;;-9.61;100.00;98835.41;1746352;82;21588;-66
2021/12/24 06:19:50;;;;;;;34.58;15.78;;;;;;;-9.56;100.00;98836.72;1742400;82;21563;-65
2021/12/24 06:22:17;;;;;;;49.23;22.48;;;;;;;-9.55;100.00;98833.91;1735276;82;21000;-65
2021/12/24 06:24:43;;;;;;;35.73;17.00;;;;;;;-9.49;100.00;98835.86;1729590;82;21027;-64
2021/12/24 06:27:09;;;;;;;44.18;20.65;;;;;;;-9.44;100.00;98828.30;1739305;82;21046;-65
2021/12/24 06:29:36;;;;;;;31.52;15.58;;;;;;;-9.41;100.00;98827.95;1730073;82;21051;-64
2021/12/24 06:32:03;;;;;;;25.02;12.75;;;;;;;-9.38;100.00;98817.08;1725639;82;21540;-65
2021/12/24 06:34:31;;;;;;;32.17;15.35;;;;;;;-9.35;100.00;98810.67;1710348;82;21051;-64
2021/12/24 06:36:58;;;;;;;28.20;13.30;;;;;;;-9.33;100.00;98806.03;1710139;82;21055;-65
2021/12/24 06:39:24;;;;;;;31.20;15.08;;;;;;;-9.33;100.00;98800.28;1738888;82;21067;-65
2021/12/24 06:41:51;;;;;;;18.95;10.40;;;;;;;-9.28;100.00;98793.19;1730897;82;21011;-65
2021/12/24 06:44:17;;;;;;;19.02;10.78;;;;;;;-9.26;100.00;98788.55;1732345;82;21573;-65
2021/12/24 06:46:44;;;;;;;22.37;12.25;;;;;;;-9.22;100.00;98785.42;1733338;82;20960;-66
2021/12/24 06:49:10;;;;;;;17.80;9.75;;;;;;;-9.18;100.00;98780.14;1730569;82;21585;-65
2021/12/24 06:51:37;;;;;;;17.50;10.15;;;;;;;-9.16;100.00;98772.88;1732504;82;21566;-65
2021/12/24 06:54:04;;;;;;;20.48;10.78;;;;;;;-9.14;100.00;98766.92;1739376;82;21075;-65
2021/12/24 06:56:31;;;;;;;20.70;11.78;;;;;;;-9.13;100.00;98757.20;1739441;82;20965;-63
2021/12/24 06:58:57;;;;;;;;;;;;;;;-9.10;100.00;98754.22;1741868;82;21528;-63
2021/12/24 07:01:24;;;;;;;19.23;10.30;;;;;;;-9.08;100.00;98735.11;1739258;82;20107;-63
2021/12/24 07:03:52;;;;;;;19.02;10.25;;;;;;;-9.04;100.00;98731.14;1739169;82;21056;-63
2021/12/24 07:06:18;;;;;;;20.55;10.60;;;;;;;-8.98;100.00;98725.66;1739201;82;21047;-63
2021/12/24 07:08:45;;;;;;;22.20;11.03;;;;;;;-8.92;100.00;98732.38;1739118;82;21513;-63
2021/12/24 07:11:11;;;;;;;20.72;12.00;;;;;;;-8.88;100.00;98731.55;1739244;82;21566;-65
2021/12/24 07:13:39;;;;;;;25.48;12.05;;;;;;;-8.83;100.00;98734.50;1739304;82;21059;-65
2021/12/24 07:16:06;;;;;;;24.50;11.18;;;;;;;-8.78;100.00;98725.55;1739320;82;21105;-65
2021/12/24 07:18:32;;;;;;;21.30;11.22;;;;;;;-8.72;100.00;98726.19;1739410;82;21589;-66
2021/12/24 07:20:58;;;;;;;22.42;11.12;;;;;;;-8.67;100.00;98719.39;1747035;81;21096;-65
2021/12/24 07:23:25;;;;;;;19.40;10.63;;;;;;;-8.62;100.00;98722.33;1747742;82;21581;-65
2021/12/24 07:25:51;;;;;;;20.65;10.28;;;;;;;-8.55;100.00;98727.73;1747735;82;21075;-66
2021/12/24 07:28:18;;;;;;;23.35;12.45;;;;;;;-8.50;100.00;98708.73;1737501;82;21114;-64
2021/12/24 07:30:45;;;;;;;21.90;11.00;;;;;;;-8.48;100.00;98708.88;1746306;82;21545;-62
2021/12/24 07:33:14;;;;;;;19.67;11.28;;;;;;;-8.44;100.00;98702.25;1728036;82;21046;-64
2021/12/24 07:35:43;;;;;;;16.90;9.83;;;;;;;-8.38;100.00;98687.52;1747203;82;21114;-64
2021/12/24 07:38:09;;;;;;;20.72;10.60;;;;;;;-8.33;100.00;98682.05;1732130;82;21126;-64
2021/12/24 07:40:36;;;;;;;21.23;10.48;;;;;;;-8.25;100.00;98670.05;1717563;83;21019;-63
2021/12/24 07:43:03;;;;;;;20.90;11.35;;;;;;;-8.18;100.00;98664.37;1717733;83;21047;-65
2021/12/24 07:45:29;;;;;;;19.65;9.98;;;;;;;-8.11;100.00;98655.23;1717587;83;21070;-64
2021/12/24 07:48:10;;;;;;;18.30;10.60;;;;;;;-8.04;100.00;98651.39;1717262;83;21054;-64
2021/12/24 07:52:54;;;;;;;23.67;13.83;;;;;;;-7.91;100.00;98646.30;1747340;82;21008;-64
2021/12/24 07:55:20;;;;;;;19.30;11.63;;;;;;;-7.86;100.00;98638.63;1747585;82;21043;-64
2021/12/24 07:57:49;;;;;;;21.50;13.05;;;;;;;-7.82;100.00;98636.78;1747464;82;21518;-64
2021/12/24 08:00:16;;;;;;;21.45;10.70;;;;;;;-7.72;100.00;98633.88;1741295;82;21091;-64
2021/12/24 08:02:43;;;;;;;18.52;10.48;;;;;;;-7.66;100.00;98630.50;1734940;82;21011;-64
2021/12/24 08:05:18;;;;;;;17.95;9.75;;;;;;;-7.61;100.00;98622.33;1747013;82;21051;-64
2021/12/24 08:07:44;;;;;;;19.77;10.93;;;;;;;-7.57;100.00;98614.36;1747354;82;21046;-63
2021/12/24 08:10:10;;;;;;;19.17;10.38;;;;;;;-7.51;100.00;98602.25;1747589;82;21047;-64
2021/12/24 08:12:37;;;;;;;22.60;11.15;;;;;;;-7.45;100.00;98613.39;1747138;82;21027;-64
2021/12/24 08:15:06;;;;;;;;;;;;;;;-7.39;100.00;98605.22;1749269;82;20988;-64
2021/12/24 08:17:33;;;;;;;18.35;10.13;;;;;;;-7.34;100.00;98608.13;1762254;81;20128;-64
2021/12/24 08:19:59;;;;;;;21.10;9.95;;;;;;;-7.34;100.00;98599.70;1719762;83;21114;-65
2021/12/24 08:22:26;;;;;;;19.12;10.93;;;;;;;-7.28;100.00;98593.66;1729380;82;21070;-69
2021/12/24 08:24:52;;;;;;;19.70;11.20;;;;;;;-7.20;100.00;98586.13;1738232;82;21031;-65
2021/12/24 08:27:21;;;;;;;20.82;11.33;;;;;;;-7.17;100.00;98585.75;1731773;81;21090;-63
2021/12/24 08:29:47;;;;;;;23.10;11.60;;;;;;;-7.11;100.00;98582.34;1725900;82;21046;-64
2021/12/24 08:32:15;;;;;;;23.52;12.05;;;;;;;-7.06;100.00;98566.75;1734652;82;21887;-64
2021/12/24 08:34:43;;;;;;;;;;;;;;;-7.01;100.00;98564.34;1753316;81;21071;-66
2021/12/24 08:37:10;;;;;;;23.42;11.33;;;;;;;-6.95;100.00;98556.98;1753130;82;20151;-66
2021/12/24 08:39:36;;;;;;;19.98;10.58;;;;;;;-6.94;100.00;98559.93;1753362;81;21059;-65
2021/12/24 08:42:03;;;;;;;23.98;12.47;;;;;;;-6.89;100.00;98550.11;1753662;82;21592;-66
2021/12/24 08:44:31;;;;;;;20.60;10.23;;;;;;;-6.84;100.00;98543.76;1753163;82;21055;-66
2021/12/24 08:47:04;;;;;;;23.27;11.03;;;;;;;-6.79;100.00;98521.50;1753423;82;21046;-66
2021/12/24 08:49:27;;;;;;;19.15;10.03;;;;;;;-6.73;100.00;98525.52;1741905;82;21054;-66
2021/12/24 08:51:54;;;;;;;19.07;10.15;;;;;;;-6.66;100.00;98527.70;1723248;83;21026;-65
2021/12/24 08:54:21;;;;;;;19.65;11.10;;;;;;;-6.60;100.00;98517.70;1723183;83;21126;-66
2021/12/24 08:56:48;;;;;;;19.05;10.48;;;;;;;-6.50;100.00;98519.18;1723585;83;21023;-66
2021/12/24 08:59:15;;;;;;;18.95;9.73;;;;;;;-6.46;100.00;98515.14;1723449;83;21066;-66
2021/12/24 09:01:45;;;;;;;18.92;11.00;;;;;;;-6.42;100.00;98507.13;1723508;83;21078;-66
2021/12/24 09:04:12;;;;;;;19.90;10.40;;;;;;;-6.37;100.00;98477.72;1723473;83;21552;-66
2021/12/24 09:06:40;;;;;;;18.42;10.25;;;;;;;-6.35;100.00;98468.27;1723471;83;21568;-66
2021/12/24 09:09:06;;;;;;;23.20;11.60;;;;;;;-6.28;100.00;98450.08;1723403;82;21054;-65
2021/12/24 09:11:38;;;;;;;18.73;10.65;;;;;;;-6.20;100.00;98453.87;1723235;83;21055;-66
2021/12/24 09:14:05;;;;;;;22.15;10.50;;;;;;;-6.08;100.00;98447.52;1723498;82;21055;-66
2021/12/24 09:16:33;;;;;;;17.48;9.30;;;;;;;-5.87;100.00;98449.22;1723338;83;21034;-66
2021/12/24 09:19:05;;;;;;;14.45;8.73;;;;;;;-5.72;100.00;98438.76;1723342;83;21106;-67
2021/12/24 09:21:29;;;;;;;18.10;9.65;;;;;;;-5.63;100.00;98429.59;1722866;83;21082;-66
2021/12/24 09:23:57;;;;;;;16.80;9.85;;;;;;;-5.50;100.00;98416.07;1723424;83;21102;-67
2021/12/24 09:26:28;;;;;;;17.17;10.43;;;;;;;-5.38;100.00;98411.78;1723533;83;21074;-67
2021/12/24 09:28:53;;;;;;;17.32;9.80;;;;;;;-5.28;100.00;98419.65;1723469;83;21129;-65
2021/12/24 09:31:19;;;;;;;15.85;9.28;;;;;;;-5.26;100.00;98404.88;1723596;83;21090;-66
2021/12/24 09:35:29;;;;;;;13.93;8.35;;;;;;;-5.21;100.00;98399.25;1801599;79;22904;-64
2021/12/24 09:37:56;;;;;;;15.58;9.73;;;;;;;-5.27;100.00;98394.77;1761523;81;20988;-64
2021/12/24 09:40:22;;;;;;;15.58;8.60;;;;;;;-5.24;100.00;98387.72;1753210;82;21117;-64
2021/12/24 09:42:49;;;;;;;15.70;8.90;;;;;;;-5.15;100.00;98383.05;1723813;82;21030;-64
2021/12/24 09:45:16;;;;;;;14.65;8.65;;;;;;;-5.10;100.00;98380.60;1723485;82;21070;-64
2021/12/24 09:47:42;;;;;;;17.10;10.18;;;;;;;-5.09;100.00;98371.09;1753078;82;21517;-65
2021/12/24 09:50:12;;;;;;;14.35;8.95;;;;;;;-5.09;100.00;98372.92;1753097;82;21079;-64
2021/12/24 09:52:40;;;;;;;14.47;9.03;;;;;;;-5.16;100.00;98372.94;1753438;82;21030;-65
2021/12/24 09:55:14;;;;;;;15.95;9.75;;;;;;;-5.23;100.00;98358.03;1752889;82;21118;-64
2021/12/24 09:57:42;;;;;;;16.52;10.65;;;;;;;-5.38;100.00;98362.21;1753177;81;21030;-64
2021/12/24 10:00:11;;;;;;;18.50;9.88;;;;;;;-5.41;100.00;98348.55;1752880;82;21087;-64
2021/12/24 10:02:46;;;;;;;17.87;9.93;;;;;;;-5.41;100.00;98341.41;1724791;82;20963;-64
2021/12/24 10:05:40;;;;;;;15.32;8.68;;;;;;;-5.41;100.00;98330.80;1752994;82;21047;-64
2021/12/24 10:08:20;;;;;;;15.93;9.28;;;;;;;-5.42;100.00;98333.67;1753224;81;20995;-65
2021/12/24 10:10:52;;;;;;;17.27;9.20;;;;;;;-5.56;100.00;98330.99;1753146;82;21023;-64
2021/12/24 10:13:34;;;;;;;14.33;8.65;;;;;;;-5.62;100.00;98333.14;1753038;81;21118;-63
2021/12/24 10:16:12;;;;;;;17.50;9.65;;;;;;;-5.65;100.00;98320.30;1753388;82;21501;-65
2021/12/24 10:18:56;;;;;;;15.72;9.33;;;;;;;-5.61;100.00;98311.42;1753231;82;21078;-64
2021/12/24 10:21:30;;;;;;;14.95;8.98;;;;;;;-5.64;100.00;98302.56;1753055;82;21401;-63
2021/12/24 10:24:18;;;;;;;16.42;8.93;;;;;;;-5.71;100.00;98298.58;1753086;82;21063;-63
2021/12/24 10:26:53;;;;;;;14.13;8.10;;;;;;;-5.74;100.00;98306.91;1753279;82;21633;-64
2021/12/24 10:29:30;;;;;;;12.82;8.33;;;;;;;-5.75;100.00;98290.73;1753051;82;21565;-65
2021/12/24 10:32:01;;;;;;;14.07;8.20;;;;;;;-5.76;100.00;98285.11;1753514;82;20984;-65
2021/12/24 10:34:30;;;;;;;15.28;8.80;;;;;;;-5.78;100.00;98267.78;1753540;81;21082;-64
2021/12/24 10:37:04;;;;;;;14.28;8.15;;;;;;;-5.77;100.00;98267.56;1754056;82;21514;-64
2021/12/24 10:39:39;;;;;;;14.28;8.10;;;;;;;-5.74;100.00;98259.73;1753472;82;21628;-64
2021/12/24 10:42:19;;;;;;;15.72;8.75;;;;;;;-5.72;100.00;98247.08;1754110;82;21478;-63
2021/12/24 10:44:48;;;;;;;14.43;8.43;;;;;;;-5.71;100.00;98242.91;1753749;82;21672;-64
2021/12/24 10:47:26;;;;;;;12.78;8.10;;;;;;;-5.68;100.00;98243.83;1753162;82;21046;-64
2021/12/24 10:55:28;;;;;;;14.75;9.23;;;;;;;-5.56;100.00;98224.94;1753279;81;21066;-65
2021/12/24 10:57:59;;;;;;;15.95;9.60;;;;;;;-5.55;100.00;98213.32;1753106;82;21075;-65
2021/12/24 11:00:39;;;;;;;14.55;8.78;;;;;;;-5.51;100.00;98201.79;1753496;82;21117;-64
2021/12/24 11:03:16;;;;;;;16.27;9.40;;;;;;;-5.50;100.00;98203.94;1752433;82;21070;-64
2021/12/24 11:05:45;;;;;;;15.75;9.73;;;;;;;-5.48;100.00;98205.34;1753254;82;21441;-65
2021/12/24 11:08:16;;;;;;;18.98;9.85;;;;;;;-5.46;100.00;98215.26;1753316;82;21008;-65
2021/12/24 11:10:48;;;;;;;14.75;9.40;;;;;;;-5.41;100.00;98204.01;1753143;82;21502;-64
2021/12/24 11:13:27;;;;;;;15.72;9.53;;;;;;;-5.38;100.00;98190.33;1753145;82;21500;-65
2021/12/24 11:15:51;;;;;;;14.55;8.98;;;;;;;-5.35;100.00;98192.59;1752403;82;21038;-65
2021/12/24 11:18:30;;;;;;;15.85;10.10;;;;;;;-5.29;100.00;98203.69;1753448;82;21101;-65
2021/12/24 11:21:06;;;;;;;15.00;9.20;;;;;;;-5.32;100.00;98200.95;1753492;82;21010;-65
2021/12/24 11:23:35;;;;;;;14.15;9.38;;;;;;;-5.34;100.00;98194.20;1753067;82;21059;-65
2021/12/24 11:26:16;;;;;;;16.12;9.68;;;;;;;-5.34;100.00;98185.73;1753495;82;21522;-65
2021/12/24 11:28:43;;;;;;;13.95;9.00;;;;;;;-5.31;100.00;98181.84;1753176;82;21110;-65
2021/12/24 11:31:19;;;;;;;19.37;10.53;;;;;;;-5.25;100.00;98176.55;1741120;82;21046;-67
2021/12/24 11:33:46;;;;;;;17.62;10.55;;;;;;;-5.19;100.00;98174.88;1738400;81;21099;-65
2021/12/24 11:36:16;;;;;;;20.82;12.73;;;;;;;-5.17;100.00;98164.35;1720868;82;20988;-66
2021/12/24 11:38:58;;;;;;;19.77;12.53;;;;;;;-5.12;100.00;98163.73;1720345;82;21028;-66
2021/12/24 11:41:29;;;;;;;21.87;13.85;;;;;;;-5.07;100.00;98161.27;1727045;82;21031;-66
2021/12/24 11:43:56;;;;;;;27.30;16.27;;;;;;;-5.07;100.00;98162.60;1714997;82;21046;-66
2021/12/24 11:46:24;;;;;;;19.00;12.20;;;;;;;-5.04;100.00;98151.05;1735528;82;21415;-66
2021/12/24 11:48:52;;;;;;;26.00;15.68;;;;;;;-5.00;100.00;98146.14;1726947;82;21566;-65
2021/12/24 11:51:23;;;;;;;19.15;11.43;;;;;;;-4.96;100.00;98148.67;1726969;82;21056;-66
2021/12/24 11:53:51;;;;;;;15.75;10.10;;;;;;;-4.94;100.00;98141.30;1722624;82;21083;-66
2021/12/24 11:56:20;;;;;;;15.50;10.20;;;;;;;-4.92;100.00;98147.20;1727169;82;21019;-68
2021/12/24 11:58:57;;;;;;;17.10;10.58;;;;;;;-4.89;100.00;98144.16;1720672;82;21055;-67
2021/12/24 12:01:27;;;;;;;14.75;9.60;;;;;;;-4.89;100.00;98128.23;1728045;81;21542;-67
2021/12/24 12:03:58;;;;;;;15.23;9.05;;;;;;;-4.87;100.00;98122.69;1724377;82;20988;-67
2021/12/24 12:06:32;;;;;;;14.07;9.33;;;;;;;-4.84;100.00;98117.77;1719666;82;21043;-66
2021/12/24 12:09:00;;;;;;;14.33;9.45;;;;;;;-4.79;100.00;98123.77;1720867;82;21054;-67
2021/12/24 12:11:30;;;;;;;13.90;8.55;;;;;;;-4.77;100.00;98118.55;1716332;82;21048;-66
2021/12/24 12:14:21;;;;;;;17.52;10.25;;;;;;;-4.73;100.00;98119.75;1736274;81;21034;-67
2021/12/24 12:16:53;;;;;;;20.70;11.88;;;;;;;-4.71;100.00;98120.34;1728615;82;21024;-67
2021/12/24 12:25:09;;;;;;;13.40;8.98;;;;;;;-4.70;100.00;98094.09;1739383;82;21114;-68
2021/12/24 12:27:54;;;;;;;16.82;10.18;;;;;;;-4.70;100.00;98092.77;1719114;82;20996;-67
2021/12/24 12:30:49;;;;;;;17.62;10.30;;;;;;;-4.69;100.00;98115.64;1727529;82;21050;-66
2021/12/24 12:33:18;;;;;;;15.55;9.75;;;;;;;-4.68;100.00;98124.42;1679030;84;21078;-67
2021/12/24 12:35:58;;;;;;;18.23;10.68;;;;;;;-4.67;100.00;98125.52;1701511;83;21069;-66
2021/12/24 12:38:39;;;;;;;17.80;11.83;;;;;;;-4.66;100.00;98121.85;1697312;83;21073;-67
2021/12/24 12:41:32;;;;;;;17.95;10.70;;;;;;;-4.67;100.00;98117.55;1701176;84;20998;-65
2021/12/24 12:43:57;;;;;;;15.70;9.80;;;;;;;-4.66;100.00;98116.54;1689219;84;21572;-69
2021/12/24 12:46:30;;;;;;;17.57;10.25;;;;;;;-4.65;100.00;98087.64;1674618;84;21054;-68
2021/12/24 12:48:56;;;;;;;15.63;9.75;;;;;;;-4.63;100.00;98079.44;1679007;84;21061;-68
2021/12/24 12:51:43;;;;;;;17.45;10.80;;;;;;;-4.63;100.00;98072.30;1694775;84;20994;-68
2021/12/24 12:54:48;;;;;;;17.02;10.28;;;;;;;-4.61;100.00;98076.08;1713185;84;21560;-68
2021/12/24 12:57:36;;;;;;;16.32;10.58;;;;;;;-4.61;100.00;98055.66;1630640;87;21519;-66
2021/12/24 13:00:27;;;;;;;16.90;10.93;;;;;;;-4.63;100.00;98044.41;1707824;84;21093;-66
2021/12/24 13:03:07;;;;;;;17.05;10.82;;;;;;;-4.63;100.00;98042.27;1693880;84;21011;-67